Time;durP1;ratioP1;P1;durP2;ratioP2;P2;SDS_P1;SDS_P2;PMS_P1;PMS_P2;Temp;Humidity;BMP_temperature;BMP_pressure;BME280_temperature;BME280_humidity;BME280_pressure;Samples;Min_cycle;Max_cycle;Signal;HPM_P1;HPM_P2
2022/12/29 00:01:52;;;;;;;45.70;24.30;;;26.10;99.90;;;;;;5092875;28;20028;-72
2022/12/29 00:04:19;;;;;;;45.35;25.85;;;26.10;99.90;;;;;;5092805;28;20024;-73
2022/12/29 00:06:45;;;;;;;49.58;25.38;;;26.00;99.90;;;;;;5093016;28;20457;-72
2022/12/29 00:09:13;;;;;;;46.28;25.95;;;26.10;99.90;;;;;;5092934;28;20028;-72
2022/12/29 00:11:40;;;;;;;44.42;25.70;;;26.10;99.90;;;;;;5095752;28;20055;-72
2022/12/29 00:16:56;;;;;;;41.88;26.35;;;26.20;99.90;;;;;;5096622;28;20035;-72
2022/12/29 00:36:09;;;;;;;43.88;24.42;;;26.20;99.90;;;;;;5096190;28;20108;-72
2022/12/29 00:44:14;;;;;;;40.88;24.23;;;26.20;99.90;;;;;;5095857;28;20024;-72
2022/12/29 00:46:42;;;;;;;46.17;23.67;;;26.20;99.90;;;;;;5096098;28;20094;-72
2022/12/29 00:52:08;;;;;;;49.40;25.10;;;26.30;99.90;;;;;;5095869;28;20446;-72
2022/12/29 00:54:37;;;;;;;42.30;23.92;;;26.40;99.90;;;;;;5096019;28;20024;-72
2022/12/29 00:57:06;;;;;;;50.90;26.48;;;26.40;99.90;;;;;;5095771;28;20024;-72
2022/12/29 00:59:34;;;;;;;47.38;26.63;;;26.30;99.90;;;;;;5095753;28;20028;-73
2022/12/29 01:02:00;;;;;;;53.92;27.48;;;26.30;99.90;;;;;;5095811;28;20020;-72
2022/12/29 01:04:27;;;;;;;45.80;27.23;;;26.40;99.90;;;;;;5095733;28;20020;-73
2022/12/29 01:06:54;;;;;;;48.15;28.55;;;26.40;99.90;;;;;;5095789;28;20016;-72
2022/12/29 01:12:09;;;;;;;58.33;34.97;;;26.50;99.90;;;;;;5095492;28;20089;-73
2022/12/29 01:14:36;;;;;;;58.20;36.05;;;26.50;99.90;;;;;;5095404;28;20504;-72
2022/12/29 01:17:04;;;;;;;72.00;36.60;;;26.50;99.90;;;;;;5095336;28;20067;-72
2022/12/29 01:19:30;;;;;;;65.68;38.20;;;26.50;99.90;;;;;;5095364;28;20366;-72
2022/12/29 01:21:57;;;;;;;66.30;38.65;;;26.50;99.90;;;;;;5094475;28;20156;-72
2022/12/29 01:24:25;;;;;;;62.42;38.63;;;26.50;99.90;;;;;;5095125;28;20035;-72
2022/12/29 01:26:54;;;;;;;68.00;39.70;;;26.50;99.90;;;;;;5095424;28;20453;-72
2022/12/29 01:29:20;;;;;;;65.25;40.28;;;26.60;99.90;;;;;;5095279;28;20095;-72
2022/12/29 01:31:47;;;;;;;63.88;40.83;;;26.60;99.90;;;;;;5095114;28;20035;-72
2022/12/29 01:34:14;;;;;;;67.53;41.97;;;26.60;99.90;;;;;;5095134;28;20024;-73
2022/12/29 01:36:40;;;;;;;64.25;38.60;;;26.60;99.90;;;;;;5095173;28;20107;-72
2022/12/29 01:39:06;;;;;;;60.72;36.58;;;26.60;99.90;;;;;;5094814;28;20016;-72
2022/12/29 01:41:33;;;;;;;60.78;35.45;;;26.60;99.90;;;;;;5095153;28;20377;-73
2022/12/29 01:44:03;;;;;;;62.35;37.78;;;26.60;99.90;;;;;;5095100;28;20099;-73
2022/12/29 01:46:41;;;;;;;53.90;34.03;;;26.70;99.90;;;;;;5094763;28;20399;-73
2022/12/29 01:49:08;;;;;;;56.22;30.80;;;26.80;99.90;;;;;;5094915;28;20024;-72
2022/12/29 01:52:02;;;;;;;46.08;29.65;;;26.80;99.90;;;;;;5094706;28;20153;-72
2022/12/29 01:54:43;;;;;;;48.03;30.13;;;26.80;99.90;;;;;;5094135;28;20477;-71
2022/12/29 01:57:15;;;;;;;48.33;29.40;;;26.90;99.90;;;;;;5094723;28;20028;-72
2022/12/29 01:59:50;;;;;;;51.13;30.58;;;26.90;99.90;;;;;;5094712;28;20106;-74
2022/12/29 02:02:17;;;;;;;44.88;27.25;;;27.00;99.90;;;;;;5094445;28;20027;-74
2022/12/29 02:04:44;;;;;;;50.10;26.17;;;27.00;99.90;;;;;;5094671;28;20020;-73
2022/12/29 02:07:18;;;;;;;46.85;24.88;;;27.00;99.90;;;;;;5094557;28;20016;-74
2022/12/29 02:09:48;;;;;;;49.13;24.35;;;27.00;99.90;;;;;;5094632;28;20107;-73
2022/12/29 02:12:15;;;;;;;37.03;23.50;;;27.10;99.90;;;;;;5094391;28;20111;-73
2022/12/29 02:14:41;;;;;;;37.05;22.30;;;27.10;99.90;;;;;;5094073;28;20504;-74
2022/12/29 02:17:21;;;;;;;50.30;25.00;;;27.10;99.90;;;;;;5094482;28;20028;-73
2022/12/29 02:20:13;;;;;;;37.80;22.52;;;27.10;99.90;;;;;;5094226;28;20044;-74
2022/12/29 02:22:48;;;;;;;;;;;27.20;99.90;;;;;;5094759;28;20050;-73
2022/12/29 02:25:15;;;;;;;40.33;20.88;;;27.30;99.90;;;;;;5094001;28;19904;-73
2022/12/29 02:28:03;;;;;;;42.55;22.60;;;27.30;99.90;;;;;;5094175;28;20034;-74
2022/12/29 02:30:43;;;;;;;40.15;22.60;;;27.30;99.90;;;;;;5093957;28;20062;-73
2022/12/29 02:33:38;;;;;;;40.15;21.15;;;27.40;99.90;;;;;;5093889;28;20103;-74
2022/12/29 02:36:10;;;;;;;42.13;22.33;;;27.40;99.90;;;;;;5094047;28;20052;-74
2022/12/29 02:38:43;;;;;;;37.92;20.65;;;27.40;99.90;;;;;;5093935;28;20448;-74
2022/12/29 02:41:21;;;;;;;36.60;22.38;;;27.40;99.90;;;;;;5093790;28;20027;-73
2022/12/29 02:43:47;;;;;;;44.40;21.48;;;27.50;99.90;;;;;;5093896;28;20547;-73
2022/12/29 02:46:42;;;;;;;40.10;21.90;;;27.40;99.90;;;;;;5093720;28;20107;-74
2022/12/29 02:49:27;;;;;;;37.17;22.17;;;27.40;99.90;;;;;;5093837;28;20032;-75
2022/12/29 02:52:21;;;;;;;34.50;22.10;;;27.40;99.90;;;;;;5093701;28;20051;-74
2022/12/29 02:54:49;;;;;;;38.45;22.02;;;27.40;99.90;;;;;;4991865;28;20097;-75
2022/12/29 02:57:25;;;;;;;49.70;25.38;;;27.50;99.90;;;;;;4992092;28;20085;-76
2022/12/29 02:59:58;;;;;;;41.88;23.35;;;27.60;99.90;;;;;;4992088;28;20063;-76
2022/12/29 03:02:25;;;;;;;37.63;21.30;;;27.60;99.90;;;;;;4992009;28;20034;-76
2022/12/29 03:05:13;;;;;;;32.28;18.75;;;27.60;99.90;;;;;;4992163;28;20030;-76
2022/12/29 03:07:44;;;;;;;33.85;20.90;;;27.60;99.90;;;;;;4934052;29;20050;-76
2022/12/29 03:10:35;;;;;;;35.13;19.02;;;27.70;99.90;;;;;;4934063;29;20036;-77
2022/12/29 03:16:29;;;;;;;33.53;20.48;;;27.70;99.90;;;;;;4857296;29;20042;-76
2022/12/29 03:18:59;;;;;;;32.30;20.02;;;27.90;99.90;;;;;;4857907;29;20038;-77
2022/12/29 03:24:36;;;;;;;36.17;20.35;;;28.00;99.90;;;;;;4859209;29;20556;-75
2022/12/29 03:27:06;;;;;;;38.50;21.52;;;28.00;99.90;;;;;;4859107;29;20045;-74
2022/12/29 03:29:37;;;;;;;33.28;20.92;;;28.00;99.90;;;;;;4858902;29;20036;-72
2022/12/29 03:32:07;;;;;;;37.80;22.17;;;28.10;99.90;;;;;;4858844;29;20037;-75
2022/12/29 03:34:35;;;;;;;35.45;22.48;;;28.10;99.90;;;;;;4859488;29;20398;-76
2022/12/29 03:37:08;;;;;;;34.35;22.77;;;28.10;99.90;;;;;;4858870;29;20321;-75
2022/12/29 03:39:35;;;;;;;38.97;23.60;;;28.10;99.90;;;;;;4915271;29;20131;-76
2022/12/29 03:42:09;;;;;;;33.58;21.38;;;28.10;99.90;;;;;;4915087;29;20482;-75
2022/12/29 03:44:42;;;;;;;36.85;22.98;;;28.10;99.90;;;;;;4915135;29;20032;-73
2022/12/29 03:47:11;;;;;;;31.42;21.15;;;28.10;99.90;;;;;;4918610;29;20076;-74
2022/12/29 03:49:38;;;;;;;33.75;22.73;;;28.20;99.90;;;;;;4919153;29;20044;-76
2022/12/29 03:52:05;;;;;;;35.60;21.58;;;28.20;99.90;;;;;;4969275;28;20034;-76
2022/12/29 03:54:32;;;;;;;42.85;23.73;;;28.30;99.90;;;;;;4994605;28;20046;-74
2022/12/29 03:56:59;;;;;;;37.30;23.25;;;28.30;99.90;;;;;;4995541;28;20059;-76
2022/12/29 03:59:25;;;;;;;32.30;20.08;;;28.30;99.90;;;;;;4995588;28;20066;-72
2022/12/29 04:01:52;;;;;;;33.30;20.48;;;28.30;99.90;;;;;;4995622;28;20032;-74
2022/12/29 04:04:18;;;;;;;35.20;22.35;;;28.30;99.90;;;;;;4995589;28;20022;-74
2022/12/29 04:06:45;;;;;;;36.13;22.17;;;28.40;99.90;;;;;;5077731;28;20035;-73
2022/12/29 04:09:11;;;;;;;35.90;23.63;;;28.40;99.90;;;;;;5097066;28;20092;-72
2022/12/29 04:11:38;;;;;;;39.85;23.27;;;28.60;99.90;;;;;;5096811;28;20039;-72
2022/12/29 04:14:04;;;;;;;38.75;23.75;;;28.70;99.90;;;;;;5096721;28;20067;-74
2022/12/29 04:16:31;;;;;;;31.70;21.60;;;28.70;99.90;;;;;;5096882;28;20024;-72
2022/12/29 04:18:57;;;;;;;33.38;21.10;;;28.80;99.90;;;;;;5096607;28;20473;-73
2022/12/29 04:21:24;;;;;;;30.38;21.90;;;28.90;99.90;;;;;;5096782;28;20384;-72
2022/12/29 04:23:50;;;;;;;35.83;22.13;;;28.90;99.90;;;;;;5096684;28;20012;-73
2022/12/29 04:26:17;;;;;;;35.75;23.20;;;28.90;99.90;;;;;;5078246;28;20389;-73
2022/12/29 04:28:43;;;;;;;36.65;25.35;;;29.00;99.90;;;;;;5096879;28;20020;-74
2022/12/29 04:31:10;;;;;;;32.83;22.13;;;29.00;99.90;;;;;;5096586;28;20020;-74
2022/12/29 04:33:37;;;;;;;37.95;23.42;;;29.00;99.90;;;;;;5096344;28;20024;-73
2022/12/29 04:36:03;;;;;;;35.97;24.08;;;29.20;99.90;;;;;;5096564;28;20052;-74
2022/12/29 04:38:30;;;;;;;33.65;21.95;;;29.20;99.90;;;;;;5096434;28;20024;-74
2022/12/29 04:41:00;;;;;;;33.15;21.05;;;29.20;99.90;;;;;;5096356;28;20107;-74
2022/12/29 04:43:27;;;;;;;34.78;22.95;;;29.10;99.90;;;;;;5096455;28;20469;-72
2022/12/29 04:45:54;;;;;;;36.88;20.92;;;29.10;99.90;;;;;;5096914;28;20464;-71
2022/12/29 04:48:20;;;;;;;31.85;20.70;;;29.20;99.90;;;;;;5096526;28;20103;-70
2022/12/29 04:50:49;;;;;;;32.05;21.35;;;29.30;99.90;;;;;;5096423;28;20039;-73
2022/12/29 04:53:17;;;;;;;30.63;21.75;;;29.40;99.90;;;;;;5096166;28;20024;-73
2022/12/29 04:55:43;;;;;;;31.65;19.58;;;29.40;99.90;;;;;;5095967;28;20020;-71
2022/12/29 04:58:10;;;;;;;44.10;21.77;;;29.50;99.90;;;;;;5095997;28;20028;-71
2022/12/29 05:00:36;;;;;;;46.05;21.83;;;29.50;99.90;;;;;;5096297;28;20366;-72
2022/12/29 05:03:03;;;;;;;28.67;19.70;;;29.60;99.90;;;;;;5095758;28;20024;-72
2022/12/29 05:05:29;;;;;;;30.75;21.77;;;29.60;99.90;;;;;;5096054;28;20484;-71
2022/12/29 05:07:56;;;;;;;32.67;18.70;;;29.60;99.90;;;;;;5095808;28;20384;-72
2022/12/29 05:10:22;;;;;;;28.90;19.63;;;29.50;99.90;;;;;;5095853;28;20370;-71
2022/12/29 05:12:49;;;;;;;30.02;18.05;;;29.50;99.90;;;;;;5095595;28;20043;-71
2022/12/29 05:15:16;;;;;;;28.10;18.65;;;29.50;99.90;;;;;;5095930;28;20043;-72
2022/12/29 05:17:42;;;;;;;28.08;19.75;;;29.60;99.90;;;;;;5095537;28;20038;-72
2022/12/29 05:20:09;;;;;;;32.08;19.67;;;29.70;99.90;;;;;;5095289;28;20032;-72
2022/12/29 05:22:37;;;;;;;37.03;21.05;;;29.80;99.90;;;;;;5095510;28;20024;-73
2022/12/29 05:25:04;;;;;;;32.58;18.52;;;29.80;99.90;;;;;;5095596;28;20016;-73
2022/12/29 05:27:30;;;;;;;28.38;17.92;;;29.90;99.90;;;;;;5095223;28;20020;-73
2022/12/29 05:29:57;;;;;;;26.77;17.90;;;29.90;99.90;;;;;;5095488;28;20080;-71
2022/12/29 05:32:23;;;;;;;26.77;17.17;;;29.90;99.90;;;;;;5095173;28;20077;-71
2022/12/29 05:34:50;;;;;;;32.60;18.63;;;29.90;99.90;;;;;;5095125;28;20028;-72
2022/12/29 05:37:16;;;;;;;26.52;17.60;;;29.80;99.90;;;;;;5095209;28;20016;-71
2022/12/29 05:39:43;;;;;;;29.13;17.63;;;29.80;99.90;;;;;;5095245;28;20042;-72
2022/12/29 05:42:09;;;;;;;31.00;19.60;;;29.80;99.90;;;;;;5094998;28;20016;-73
2022/12/29 05:44:36;;;;;;;33.58;20.45;;;29.80;99.90;;;;;;5095187;28;20020;-73
2022/12/29 05:47:02;;;;;;;28.95;17.98;;;29.80;99.90;;;;;;5095123;28;20016;-73
2022/12/29 05:49:29;;;;;;;33.45;20.23;;;29.80;99.90;;;;;;5094835;28;20024;-73
2022/12/29 05:51:55;;;;;;;27.63;18.95;;;29.90;99.90;;;;;;5095037;28;20030;-73
2022/12/29 05:54:22;;;;;;;33.20;19.80;;;29.90;99.90;;;;;;5094932;28;20027;-74
2022/12/29 05:56:48;;;;;;;28.45;19.13;;;29.90;99.90;;;;;;5094726;28;20016;-71
2022/12/29 05:59:15;;;;;;;32.45;20.45;;;29.80;99.90;;;;;;5094836;28;20107;-72
2022/12/29 06:01:41;;;;;;;25.67;18.13;;;29.80;99.90;;;;;;5095400;28;20027;-72
2022/12/29 06:04:08;;;;;;;29.35;19.30;;;29.80;99.90;;;;;;5094737;28;20073;-73
2022/12/29 06:06:35;;;;;;;23.40;18.20;;;29.80;99.90;;;;;;5094817;28;20013;-73
2022/12/29 06:09:01;;;;;;;30.20;19.23;;;29.80;99.90;;;;;;5094091;28;20028;-73
2022/12/29 06:11:28;;;;;;;37.25;19.88;;;29.80;99.90;;;;;;5094469;28;20385;-73
2022/12/29 06:13:54;;;;;;;29.67;20.17;;;29.80;99.90;;;;;;5094280;28;20052;-74
2022/12/29 06:16:21;;;;;;;31.27;21.02;;;29.80;99.90;;;;;;5094372;28;20032;-73
2022/12/29 06:18:48;;;;;;;30.30;21.40;;;29.90;99.90;;;;;;5094210;28;20106;-74
2022/12/29 06:21:14;;;;;;;45.83;26.10;;;29.90;99.90;;;;;;5094310;28;20544;-73
2022/12/29 06:23:40;;;;;;;33.80;24.77;;;29.90;99.90;;;;;;5094505;28;20107;-72
2022/12/29 06:26:07;;;;;;;31.10;20.80;;;29.90;99.90;;;;;;5094855;28;20016;-72
2022/12/29 06:28:33;;;;;;;35.22;21.73;;;29.90;99.90;;;;;;5094354;28;20020;-73
2022/12/29 06:31:02;;;;;;;26.90;18.48;;;29.90;99.90;;;;;;5076317;28;20366;-73
2022/12/29 06:33:29;;;;;;;48.20;24.17;;;29.90;99.90;;;;;;5094204;28;20041;-74
2022/12/29 06:35:56;;;;;;;44.25;23.38;;;29.90;99.90;;;;;;5094030;28;20024;-73
2022/12/29 06:38:22;;;;;;;52.60;26.58;;;29.60;99.90;;;;;;5094067;28;20046;-73
2022/12/29 06:40:49;;;;;;;38.20;18.17;;;29.30;99.90;;;;;;5094156;28;20020;-71
2022/12/29 06:43:15;;;;;;;37.78;16.63;;;28.80;99.90;;;;;;5094225;28;20072;-73
2022/12/29 06:45:42;;;;;;;30.15;13.85;;;28.50;99.90;;;;;;5094233;28;20016;-73
2022/12/29 06:48:09;;;;;;;24.92;13.45;;;28.40;99.90;;;;;;5094054;28;20473;-74
2022/12/29 06:50:35;;;;;;;23.13;12.68;;;28.30;99.90;;;;;;5093972;28;20021;-73
2022/12/29 06:53:02;;;;;;;21.15;12.57;;;28.20;99.90;;;;;;5094044;28;20067;-75
2022/12/29 06:55:28;;;;;;;16.52;12.25;;;28.20;99.90;;;;;;5093899;28;20027;-74
2022/12/29 06:57:57;;;;;;;19.73;13.02;;;28.40;99.90;;;;;;5093669;28;20032;-71
2022/12/29 07:00:25;;;;;;;18.40;12.82;;;28.40;99.90;;;;;;5093641;28;20024;-74
2022/12/29 07:02:51;;;;;;;18.15;12.85;;;28.50;99.90;;;;;;5093699;28;20024;-74
2022/12/29 07:05:18;;;;;;;19.95;12.88;;;28.60;99.90;;;;;;5093598;28;20099;-72
2022/12/29 07:07:45;;;;;;;27.15;15.98;;;28.60;99.90;;;;;;5093739;28;20043;-72
2022/12/29 07:10:11;;;;;;;24.83;15.40;;;28.60;99.90;;;;;;5093668;28;20101;-72
2022/12/29 07:12:38;;;;;;;26.52;17.98;;;28.50;99.90;;;;;;5093487;28;20530;-73
2022/12/29 07:15:05;;;;;;;27.25;18.75;;;28.40;99.90;;;;;;5093342;28;20055;-73
2022/12/29 07:17:32;;;;;;;29.80;19.25;;;28.40;99.90;;;;;;5093509;28;20024;-72
2022/12/29 07:19:58;;;;;;;29.02;21.42;;;28.40;99.90;;;;;;5092447;28;20032;-72
2022/12/29 07:22:25;;;;;;;31.30;20.17;;;28.40;99.90;;;;;;5093353;28;20051;-74
2022/12/29 07:24:51;;;;;;;32.25;19.25;;;28.40;99.90;;;;;;5093467;28;20119;-74
2022/12/29 07:27:18;;;;;;;31.85;20.63;;;28.40;99.90;;;;;;5093279;28;20074;-72
2022/12/29 07:29:44;;;;;;;32.50;20.63;;;28.30;99.90;;;;;;5093449;28;20024;-72
2022/12/29 07:32:11;;;;;;;26.73;19.83;;;28.30;99.90;;;;;;5093402;28;20028;-73
2022/12/29 07:34:39;;;;;;;35.72;22.48;;;28.30;99.90;;;;;;5093204;28;20115;-71
2022/12/29 07:37:06;;;;;;;28.95;20.73;;;28.30;99.90;;;;;;5093395;28;20047;-72
2022/12/29 07:39:33;;;;;;;30.20;21.00;;;28.30;99.90;;;;;;5093014;28;20036;-72
2022/12/29 07:41:59;;;;;;;30.38;22.08;;;28.40;99.90;;;;;;5093423;28;20020;-72
2022/12/29 07:44:26;;;;;;;34.70;22.95;;;28.40;99.90;;;;;;5093885;28;20384;-73
2022/12/29 07:46:52;;;;;;;34.28;23.33;;;28.40;99.90;;;;;;5093527;28;20023;-74
2022/12/29 07:49:19;;;;;;;32.13;22.13;;;28.40;99.90;;;;;;5093553;28;20020;-71
2022/12/29 07:51:46;;;;;;;34.70;23.58;;;28.40;99.90;;;;;;5093520;28;20032;-73
2022/12/29 07:54:12;;;;;;;29.70;21.88;;;28.40;99.90;;;;;;5093620;28;20031;-73
2022/12/29 07:56:39;;;;;;;32.55;23.02;;;28.40;99.90;;;;;;5093334;28;20021;-72
2022/12/29 07:59:05;;;;;;;31.88;21.42;;;28.40;99.90;;;;;;5093063;28;20034;-73
2022/12/29 08:01:32;;;;;;;35.15;22.15;;;28.40;99.90;;;;;;5093061;28;20023;-74
2022/12/29 08:03:58;;;;;;;33.83;23.77;;;28.40;99.90;;;;;;5093107;28;20020;-73
2022/12/29 08:06:25;;;;;;;31.15;22.42;;;28.40;99.90;;;;;;5092898;28;20376;-74
2022/12/29 08:08:51;;;;;;;41.28;23.70;;;28.40;99.90;;;;;;5093354;28;20475;-73
2022/12/29 08:11:18;;;;;;;31.05;22.38;;;28.40;99.90;;;;;;5082795;28;20023;-72
2022/12/29 08:13:44;;;;;;;33.97;22.73;;;28.40;99.90;;;;;;5093215;28;20037;-73
2022/12/29 08:16:11;;;;;;;39.20;24.15;;;28.30;99.90;;;;;;5093187;28;20024;-73
2022/12/29 08:18:37;;;;;;;30.92;21.73;;;28.30;99.90;;;;;;5093155;28;20020;-72
2022/12/29 08:21:05;;;;;;;36.88;21.95;;;28.30;99.90;;;;;;5090471;28;20024;-71
2022/12/29 08:23:32;;;;;;;35.20;23.67;;;28.30;99.90;;;;;;5092777;28;20409;-71
2022/12/29 08:26:01;;;;;;;32.15;22.52;;;28.30;99.90;;;;;;5092947;28;20021;-74
2022/12/29 08:28:28;;;;;;;40.13;24.20;;;28.20;99.90;;;;;;5092694;28;20070;-68
2022/12/29 08:30:57;;;;;;;35.88;22.98;;;28.20;99.90;;;;;;5093405;28;20024;-72
2022/12/29 08:33:23;;;;;;;32.45;23.05;;;28.20;99.90;;;;;;5096726;28;20020;-73
2022/12/29 08:35:50;;;;;;;41.10;24.30;;;28.20;99.90;;;;;;5096526;28;20026;-71
2022/12/29 08:38:17;;;;;;;33.70;24.10;;;28.20;99.90;;;;;;5096508;28;20054;-69
2022/12/29 08:40:44;;;;;;;34.35;23.02;;;28.10;99.90;;;;;;5096197;28;20408;-70
2022/12/29 08:43:10;;;;;;;33.25;24.00;;;28.20;99.90;;;;;;5096196;28;20024;-71
2022/12/29 08:45:37;;;;;;;32.78;21.73;;;28.10;99.90;;;;;;5096183;28;20074;-70
2022/12/29 08:48:04;;;;;;;33.30;22.83;;;28.00;99.90;;;;;;5096439;28;20024;-69
2022/12/29 08:50:30;;;;;;;31.65;22.33;;;28.10;99.90;;;;;;5096167;28;20157;-70
2022/12/29 08:52:57;;;;;;;33.33;24.17;;;28.10;99.90;;;;;;5096265;28;20388;-69
2022/12/29 08:55:23;;;;;;;37.03;24.27;;;28.00;99.90;;;;;;5096157;28;20024;-70
2022/12/29 08:57:50;;;;;;;32.97;22.95;;;28.10;99.90;;;;;;5096464;28;20024;-69
2022/12/29 09:00:16;;;;;;;32.70;23.45;;;28.00;99.90;;;;;;5096118;28;20066;-71
2022/12/29 09:02:43;;;;;;;33.47;24.70;;;28.10;99.90;;;;;;5096082;28;20026;-72
2022/12/29 09:05:10;;;;;;;37.60;25.02;;;28.10;99.90;;;;;;5095795;28;20020;-69
2022/12/29 09:07:36;;;;;;;30.30;21.90;;;28.10;99.90;;;;;;5096016;28;20051;-71
2022/12/29 09:10:04;;;;;;;31.15;22.55;;;28.00;99.90;;;;;;5096062;28;20031;-71
2022/12/29 09:12:30;;;;;;;34.00;24.52;;;28.00;99.90;;;;;;5095658;28;20389;-70
2022/12/29 09:14:57;;;;;;;36.55;25.25;;;28.00;99.90;;;;;;5114805;28;20043;-68
2022/12/29 09:20:15;;;;;;;39.33;26.95;;;28.00;99.90;;;;;;5116121;28;20062;-71
2022/12/29 09:22:42;;;;;;;40.80;25.47;;;27.90;99.90;;;;;;5116352;28;20027;-71
2022/12/29 09:25:09;;;;;;;35.22;26.27;;;27.90;99.90;;;;;;5116318;28;20291;-71
2022/12/29 09:27:36;;;;;;;38.40;25.05;;;27.90;99.90;;;;;;5116715;28;20027;-70
2022/12/29 09:30:06;;;;;;;34.92;25.33;;;27.90;99.90;;;;;;5082571;28;20378;-70
2022/12/29 09:32:33;;;;;;;36.28;24.45;;;27.90;99.90;;;;;;5085380;28;20511;-70
2022/12/29 09:35:00;;;;;;;44.75;29.20;;;28.00;99.90;;;;;;5095762;28;20408;-71
2022/12/29 09:37:27;;;;;;;40.33;26.88;;;28.00;99.90;;;;;;5090433;28;20395;-70
2022/12/29 09:39:54;;;;;;;39.60;25.23;;;27.90;99.90;;;;;;5094360;28;20027;-70
2022/12/29 09:42:35;;;;;;;49.25;26.73;;;27.90;99.90;;;;;;5115413;28;20065;-71
2022/12/29 09:45:08;;;;;;;42.20;26.83;;;27.90;99.90;;;;;;5115603;28;20024;-71
2022/12/29 09:47:35;;;;;;;40.80;27.75;;;27.90;99.90;;;;;;5115916;28;20026;-68
2022/12/29 09:50:26;;;;;;;32.85;22.58;;;27.80;99.90;;;;;;5115589;28;20069;-71
2022/12/29 09:53:08;;;;;;;31.38;21.42;;;27.60;99.90;;;;;;5063176;28;20050;-67
2022/12/29 09:55:41;;;;;;;38.70;19.05;;;27.60;99.90;;;;;;5052279;28;20033;-69
2022/12/29 09:58:25;;;;;;;33.97;19.17;;;27.50;99.90;;;;;;5056421;28;20048;-69
2022/12/29 10:01:05;;;;;;;31.27;20.20;;;27.40;99.90;;;;;;5053904;28;20039;-69
2022/12/29 10:03:46;;;;;;;27.30;17.27;;;27.40;99.90;;;;;;5053510;28;20513;-69
2022/12/29 10:06:25;;;;;;;20.90;14.35;;;27.40;99.90;;;;;;5053157;28;20584;-69
2022/12/29 10:08:52;;;;;;;18.80;12.90;;;27.40;99.90;;;;;;5053370;28;20021;-68
2022/12/29 10:11:47;;;;;;;25.48;14.32;;;27.30;99.90;;;;;;5052845;28;20033;-70
2022/12/29 10:14:30;;;;;;;26.77;14.15;;;27.20;99.90;;;;;;4993498;28;20042;-69
2022/12/29 10:17:13;;;;;;;22.23;15.32;;;27.20;99.90;;;;;;4993601;28;20026;-69
2022/12/29 10:19:54;;;;;;;20.92;11.77;;;27.20;99.90;;;;;;4993594;28;20439;-69
2022/12/29 10:22:31;;;;;;;23.63;11.52;;;27.20;99.90;;;;;;4994421;28;20158;-69
2022/12/29 10:25:02;;;;;;;17.33;10.63;;;27.10;99.90;;;;;;5033133;28;20621;-69
2022/12/29 10:27:33;;;;;;;17.80;12.15;;;27.10;99.90;;;;;;5033064;28;20032;-69
2022/12/29 10:30:02;;;;;;;22.52;12.77;;;27.10;99.90;;;;;;5032843;28;20104;-68
2022/12/29 10:32:30;;;;;;;23.58;13.38;;;27.10;99.90;;;;;;5032280;28;20030;-69
2022/12/29 10:35:04;;;;;;;22.65;14.32;;;27.10;99.90;;;;;;5031868;28;20041;-70
2022/12/29 10:37:51;;;;;;;24.85;12.63;;;27.20;99.90;;;;;;5032644;28;20509;-70
2022/12/29 10:40:25;;;;;;;17.92;9.77;;;27.20;99.90;;;;;;5032073;28;20473;-69
2022/12/29 10:42:55;;;;;;;24.42;13.23;;;27.20;99.90;;;;;;5032477;28;20032;-69
2022/12/29 10:45:25;;;;;;;23.33;12.25;;;27.20;99.90;;;;;;5076237;28;20038;-70
2022/12/29 10:48:05;;;;;;;19.98;11.82;;;27.10;99.90;;;;;;5091439;28;20193;-69
2022/12/29 10:50:32;;;;;;;26.20;16.02;;;27.10;99.90;;;;;;5094778;28;20032;-72
2022/12/29 10:53:02;;;;;;;31.25;16.50;;;27.20;99.90;;;;;;5093717;28;20392;-69
2022/12/29 10:55:35;;;;;;;32.10;17.35;;;27.20;99.90;;;;;;5094474;28;20477;-69
2022/12/29 10:58:05;;;;;;;29.92;15.88;;;27.30;99.90;;;;;;5094524;28;20036;-70
2022/12/29 11:00:33;;;;;;;25.58;12.30;;;27.20;99.90;;;;;;5094690;28;20103;-68
2022/12/29 11:03:25;;;;;;;25.17;10.38;;;27.20;99.90;;;;;;5091619;28;20071;-70
2022/12/29 11:06:12;;;;;;;24.92;9.70;;;27.20;99.90;;;;;;5074410;28;20466;-69
2022/12/29 11:08:48;;;;;;;20.17;8.85;;;27.20;99.90;;;;;;5073766;28;20040;-69
2022/12/29 11:11:26;;;;;;;20.50;9.57;;;27.20;99.90;;;;;;5074003;28;20020;-70
2022/12/29 11:13:59;;;;;;;27.08;12.68;;;27.30;99.90;;;;;;5073830;28;20412;-70
2022/12/29 11:16:30;;;;;;;30.75;16.25;;;27.20;99.90;;;;;;5074051;28;20024;-70
2022/12/29 11:18:57;;;;;;;25.37;13.23;;;27.10;99.90;;;;;;5073710;28;20156;-70
2022/12/29 11:21:33;;;;;;;30.95;15.43;;;27.00;99.90;;;;;;5074241;28;20740;-69
2022/12/29 11:24:02;;;;;;;30.17;15.30;;;27.00;99.90;;;;;;5073945;28;20028;-69
2022/12/29 11:26:30;;;;;;;29.67;16.92;;;27.00;99.90;;;;;;5073975;28;20108;-69
2022/12/29 11:29:19;;;;;;;24.80;15.25;;;27.00;99.90;;;;;;5078980;28;20024;-69
2022/12/29 11:31:50;;;;;;;29.25;15.88;;;27.00;99.90;;;;;;5093578;28;20012;-69
2022/12/29 11:34:30;;;;;;;31.33;17.35;;;27.00;99.90;;;;;;5093464;28;20016;-69
2022/12/29 11:37:06;;;;;;;33.92;19.27;;;27.00;99.90;;;;;;5093352;28;20027;-70
2022/12/29 11:39:50;;;;;;;32.33;18.50;;;27.10;99.90;;;;;;5093671;28;20028;-70
2022/12/29 11:42:20;;;;;;;31.15;19.65;;;27.20;99.90;;;;;;5083601;28;20024;-68
2022/12/29 11:44:49;;;;;;;35.53;20.90;;;27.30;99.90;;;;;;5093693;28;20525;-69
2022/12/29 11:47:26;;;;;;;41.72;20.65;;;27.30;99.90;;;;;;5093530;28;20051;-68
2022/12/29 11:49:57;;;;;;;38.03;21.67;;;27.30;99.90;;;;;;5078134;28;20033;-69
2022/12/29 11:52:27;;;;;;;40.35;23.60;;;27.30;99.90;;;;;;5085305;28;20042;-70
2022/12/29 11:54:55;;;;;;;41.67;22.73;;;27.40;99.90;;;;;;5091259;28;20028;-70
2022/12/29 11:57:24;;;;;;;43.25;25.25;;;27.30;99.90;;;;;;5084032;28;20477;-70
2022/12/29 11:59:55;;;;;;;36.42;22.20;;;27.30;99.90;;;;;;5090358;28;20070;-69
2022/12/29 12:02:36;;;;;;;42.25;25.60;;;27.30;99.90;;;;;;5093834;28;20660;-70
2022/12/29 12:05:18;;;;;;;41.45;26.88;;;27.30;99.90;;;;;;5092110;28;20032;-70
2022/12/29 12:07:49;;;;;;;44.67;28.33;;;27.20;99.90;;;;;;5095688;28;20103;-70
2022/12/29 12:10:44;;;;;;;46.28;29.70;;;27.30;99.90;;;;;;5095968;28;20388;-70
2022/12/29 12:13:24;;;;;;;46.17;29.88;;;27.30;99.90;;;;;;5097050;28;20032;-70
2022/12/29 12:16:21;;;;;;;43.38;27.55;;;27.30;99.90;;;;;;5097070;28;20272;-70
2022/12/29 12:18:55;;;;;;;39.42;26.48;;;27.30;99.90;;;;;;5096863;28;20101;-70
2022/12/29 12:21:39;;;;;;;34.40;23.85;;;27.30;99.90;;;;;;5096442;28;20078;-69
2022/12/29 12:24:27;;;;;;;35.80;22.08;;;27.20;99.90;;;;;;5096910;28;20024;-71
2022/12/29 12:27:22;;;;;;;32.03;20.90;;;27.20;99.90;;;;;;5097306;28;20027;-70
2022/12/29 12:29:58;;;;;;;28.95;20.10;;;27.20;99.90;;;;;;5097280;28;20487;-69
2022/12/29 12:32:44;;;;;;;28.05;19.33;;;27.10;99.90;;;;;;5097043;28;20496;-69
2022/12/29 12:35:33;;;;;;;28.30;19.05;;;27.10;99.90;;;;;;5096996;28;20024;-69
2022/12/29 12:38:19;;;;;;;25.08;16.52;;;27.10;99.90;;;;;;4995142;28;20554;-69
2022/12/29 12:41:05;;;;;;;27.50;18.83;;;27.10;99.90;;;;;;4995303;28;20034;-69
2022/12/29 12:43:47;;;;;;;24.63;17.27;;;27.10;99.90;;;;;;4995430;28;20506;-70
2022/12/29 12:48:46;;;;;;;29.70;20.80;;;27.10;99.90;;;;;;5094432;28;20067;-69
2022/12/29 12:51:19;;;;;;;32.03;20.38;;;27.00;99.90;;;;;;5096736;28;20031;-68
2022/12/29 12:53:47;;;;;;;28.02;19.95;;;27.00;99.90;;;;;;5096733;28;20040;-69
2022/12/29 12:56:32;;;;;;;26.48;19.30;;;27.00;99.90;;;;;;5096651;28;20112;-70
2022/12/29 12:59:17;;;;;;;29.23;20.00;;;26.90;99.90;;;;;;5096428;28;20578;-70
2022/12/29 13:01:55;;;;;;;30.08;20.30;;;26.90;99.90;;;;;;5096795;28;20490;-70
2022/12/29 13:04:34;;;;;;;29.52;20.98;;;26.90;99.90;;;;;;5096563;28;20032;-70
2022/12/29 13:07:01;;;;;;;31.25;21.13;;;26.90;99.90;;;;;;5096505;28;20071;-70
2022/12/29 13:09:40;;;;;;;38.53;25.23;;;26.90;99.90;;;;;;5096313;28;20122;-68
2022/12/29 13:12:25;;;;;;;52.35;31.92;;;26.90;99.90;;;;;;5096376;28;20024;-69
2022/12/29 13:15:02;;;;;;;42.78;26.50;;;26.90;99.90;;;;;;5096531;28;20031;-70
2022/12/29 13:17:43;;;;;;;39.67;25.85;;;26.90;99.90;;;;;;5095290;28;20103;-69
2022/12/29 13:20:29;;;;;;;39.17;26.95;;;26.90;99.90;;;;;;5096212;28;20051;-69
2022/12/29 13:23:20;;;;;;;38.00;27.33;;;26.80;99.90;;;;;;5093508;28;20111;-70
2022/12/29 13:25:48;;;;;;;44.28;29.60;;;26.80;99.90;;;;;;5013691;28;20117;-70
2022/12/29 13:28:16;;;;;;;54.83;35.92;;;26.80;99.90;;;;;;5013681;28;20125;-70
2022/12/29 13:31:03;;;;;;;64.75;41.53;;;26.80;99.90;;;;;;5013755;28;20034;-70